createdAt,value
2017-08-14T00:00:13.116Z,13.4
2017-08-14T00:01:15.660Z,13.2
2017-08-14T00:02:18.875Z,13.2
2017-08-14T00:03:21.479Z,13.3
2017-08-14T00:04:24.145Z,13.4
2017-08-14T00:05:26.719Z,13.5
2017-08-14T00:06:30.256Z,13.5
2017-08-14T00:07:32.693Z,13.5
2017-08-14T00:08:35.102Z,13.4
2017-08-14T00:09:37.635Z,13.5
2017-08-14T00:10:40.218Z,13.4
2017-08-14T00:11:42.703Z,13.4
2017-08-14T00:12:45.258Z,13.5
2017-08-14T00:13:47.755Z,13.5
2017-08-14T00:14:50.222Z,13.5
2017-08-14T00:15:52.695Z,13.5
2017-08-14T00:16:55.173Z,13.4
2017-08-14T00:17:57.727Z,13.2
2017-08-14T00:19:00.248Z,12.9
2017-08-14T00:20:07.156Z,12.9
2017-08-14T00:21:09.934Z,12.9
2017-08-14T00:22:12.488Z,13
2017-08-14T00:23:15.161Z,13.2
2017-08-14T00:24:17.701Z,13.2
2017-08-14T00:25:20.406Z,13.3
2017-08-14T00:26:22.960Z,13.3
2017-08-14T00:27:26.062Z,13.4
2017-08-14T00:28:28.616Z,13.2
2017-08-14T00:29:31.157Z,13.3
2017-08-14T00:30:33.853Z,13.2
2017-08-14T00:31:36.574Z,13.2
2017-08-14T00:32:39.029Z,13.4
2017-08-14T00:33:41.648Z,13.2
2017-08-14T00:34:44.169Z,13.3
2017-08-14T00:35:46.806Z,13.3
2017-08-14T00:36:49.261Z,13.3
2017-08-14T00:37:51.746Z,13.3
2017-08-14T00:38:54.178Z,13.2
2017-08-14T00:39:56.650Z,13.2
2017-08-14T00:40:59.235Z,13.2
2017-08-14T00:42:03.248Z,13.3
2017-08-14T00:43:05.730Z,13.1
2017-08-14T00:44:08.179Z,13.1
2017-08-14T00:45:10.734Z,13.1
2017-08-14T00:46:13.277Z,13.1
2017-08-14T00:47:15.842Z,13.1
2017-08-14T00:48:18.376Z,13.1
2017-08-14T00:49:21.988Z,13.1
2017-08-14T00:50:24.710Z,13.1
2017-08-14T00:51:27.836Z,13.1
2017-08-14T00:52:30.386Z,12.9
2017-08-14T00:53:32.835Z,13.1
2017-08-14T00:54:35.312Z,13.2
2017-08-14T00:55:38.674Z,13.2
2017-08-14T00:56:41.247Z,13.2
2017-08-14T00:57:43.745Z,13.2
2017-08-14T00:58:46.220Z,13.3
2017-08-14T00:59:48.675Z,13.4
2017-08-14T01:00:51.118Z,12.9
2017-08-14T01:01:53.721Z,13.3
2017-08-14T01:02:56.234Z,13.3
2017-08-14T01:03:58.734Z,13.3
2017-08-14T01:05:01.245Z,13.2
2017-08-14T01:06:05.599Z,13.4
2017-08-14T01:07:07.993Z,13.4
2017-08-14T01:08:10.560Z,13.3
2017-08-14T01:09:13.077Z,13.1
2017-08-14T01:10:15.772Z,13.1
2017-08-14T01:11:19.055Z,13.1
2017-08-14T01:12:21.637Z,13.1
2017-08-14T01:13:24.177Z,13.3
2017-08-14T01:14:26.977Z,13.2
2017-08-14T01:15:29.585Z,13.2
2017-08-14T01:16:32.270Z,13.2
2017-08-14T01:17:34.762Z,13.1
2017-08-14T01:18:37.227Z,13.1
2017-08-14T01:19:39.754Z,13.2
2017-08-14T01:20:42.270Z,13.1
2017-08-14T01:21:44.878Z,13.1
2017-08-14T01:22:47.350Z,13
2017-08-14T01:23:49.884Z,12.9
2017-08-14T01:24:52.305Z,13
2017-08-14T01:25:54.791Z,13.1
2017-08-14T01:26:57.372Z,13.1
2017-08-14T01:28:04.088Z,12.9
2017-08-14T01:29:06.899Z,12.9
2017-08-14T01:30:10.587Z,12.8
2017-08-14T01:31:13.541Z,12.6
2017-08-14T01:32:16.073Z,12.6
2017-08-14T01:33:19.300Z,12.7
2017-08-14T01:34:22.021Z,12.6
2017-08-14T01:35:24.522Z,12.6
2017-08-14T01:36:27.059Z,12.6
2017-08-14T01:37:29.540Z,12.7
2017-08-14T01:38:32.003Z,12.7
2017-08-14T01:39:34.485Z,12.8
2017-08-14T01:40:36.938Z,12.8
2017-08-14T01:41:39.447Z,12.9
2017-08-14T01:42:41.857Z,13
2017-08-14T01:43:44.333Z,12.9
2017-08-14T01:44:46.778Z,12.9
2017-08-14T01:45:49.308Z,12.9
2017-08-14T01:46:51.765Z,12.9
2017-08-14T01:47:54.239Z,12.9
2017-08-14T01:48:56.725Z,12.9
2017-08-14T01:49:59.228Z,12.9
2017-08-14T01:51:01.763Z,12.8
2017-08-14T01:52:04.702Z,12.8
2017-08-14T01:53:08.199Z,12.8
2017-08-14T01:54:10.820Z,12.7
2017-08-14T01:55:13.383Z,12.7
2017-08-14T01:56:16.935Z,12.6
2017-08-14T01:57:19.507Z,12.5
2017-08-14T01:58:22.446Z,12.5
2017-08-14T01:59:24.983Z,12.5
2017-08-14T02:00:27.619Z,12.5
2017-08-14T02:01:30.223Z,12.5
2017-08-14T02:02:32.963Z,12.4
2017-08-14T02:03:36.039Z,12.5
2017-08-14T02:04:38.468Z,12.5
2017-08-14T02:05:41.085Z,12.6
2017-08-14T02:06:43.615Z,12.5
2017-08-14T02:07:46.325Z,12.4
2017-08-14T02:08:48.727Z,12.4
2017-08-14T02:09:51.215Z,12.4
2017-08-14T02:10:53.595Z,12.3
2017-08-14T02:11:56.069Z,12.2
2017-08-14T02:12:59.310Z,12.3
2017-08-14T02:14:01.829Z,12.3
2017-08-14T02:15:05.395Z,12.2
2017-08-14T02:16:09.073Z,12.1
2017-08-14T02:17:11.658Z,12.1
2017-08-14T02:18:14.299Z,12
2017-08-14T02:19:16.859Z,12.1
2017-08-14T02:20:19.403Z,12.4
2017-08-14T02:21:21.893Z,12.2
2017-08-14T02:22:24.463Z,12.5
2017-08-14T02:23:26.985Z,12.6
2017-08-14T02:24:29.519Z,12.6
2017-08-14T02:25:32.020Z,12.6
2017-08-14T02:26:34.496Z,12.7
2017-08-14T02:27:37.043Z,12.8
2017-08-14T02:28:39.556Z,12.7
2017-08-14T02:29:42.141Z,12.8
2017-08-14T02:30:44.760Z,12.9
2017-08-14T02:31:47.428Z,13
2017-08-14T02:32:49.946Z,12.7
2017-08-14T02:33:52.545Z,13
2017-08-14T02:34:55.047Z,13
2017-08-14T02:35:57.695Z,12.9
2017-08-14T02:37:00.205Z,12.9
2017-08-14T02:38:02.922Z,12.8
2017-08-14T02:39:05.367Z,12.9
2017-08-14T02:40:08.648Z,12.9
2017-08-14T02:41:11.436Z,12.9
2017-08-14T02:42:14.093Z,12.9
2017-08-14T02:43:19.014Z,12.9
2017-08-14T02:44:21.580Z,13
2017-08-14T02:45:24.072Z,13
2017-08-14T02:46:26.655Z,13
2017-08-14T02:47:29.214Z,13.1
2017-08-14T02:48:31.845Z,13
2017-08-14T02:49:34.291Z,13
2017-08-14T02:50:36.801Z,13
2017-08-14T02:51:39.413Z,13
2017-08-14T02:52:41.870Z,12.9
2017-08-14T02:53:44.444Z,12.8
2017-08-14T02:54:47.669Z,12.8
2017-08-14T02:55:50.062Z,12.9
2017-08-14T02:56:52.508Z,12.9
2017-08-14T02:57:55.006Z,12.6
2017-08-14T02:58:57.414Z,12.9
2017-08-14T02:59:59.879Z,12.9
2017-08-14T03:01:03.043Z,12.9
2017-08-14T03:02:05.655Z,12.9
2017-08-14T03:03:08.155Z,12.8
2017-08-14T03:04:10.676Z,12.8
2017-08-14T03:05:13.233Z,12.6
2017-08-14T03:06:16.344Z,12.3
2017-08-14T03:07:19.394Z,12.5
2017-08-14T03:08:21.941Z,12.5
2017-08-14T03:09:24.453Z,12.4
2017-08-14T03:10:26.990Z,12.5
2017-08-14T03:11:29.508Z,12.5
2017-08-14T03:12:32.015Z,12.5
2017-08-14T03:13:35.158Z,12.6
2017-08-14T03:14:37.930Z,12.5
2017-08-14T03:15:40.398Z,12.6
2017-08-14T03:16:42.893Z,12.7
2017-08-14T03:17:45.328Z,12.7
2017-08-14T03:18:47.814Z,12.7
2017-08-14T03:19:50.346Z,12.8
2017-08-14T03:20:52.933Z,12.9
2017-08-14T03:21:55.367Z,12.8
2017-08-14T03:22:57.903Z,12.8
2017-08-14T03:24:00.361Z,12.8
2017-08-14T03:25:04.580Z,12.8
2017-08-14T03:26:08.670Z,12.9
2017-08-14T03:27:11.215Z,12.8
2017-08-14T03:28:14.367Z,12.9
2017-08-14T03:29:16.905Z,12.9
2017-08-14T03:30:19.422Z,12.7
2017-08-14T03:31:22.066Z,12.8
2017-08-14T03:32:24.572Z,12.7
2017-08-14T03:33:27.088Z,12.8
2017-08-14T03:34:29.611Z,12.9
2017-08-14T03:35:32.071Z,12.9
2017-08-14T03:36:34.840Z,12.8
2017-08-14T03:37:37.584Z,12.8
2017-08-14T03:38:40.115Z,12.7
2017-08-14T03:39:42.567Z,12.6
2017-08-14T03:40:45.164Z,12.6
2017-08-14T03:41:47.635Z,12.6
2017-08-14T03:42:51.289Z,12.6
2017-08-14T03:43:53.861Z,12.6
2017-08-14T03:44:56.243Z,12.5
2017-08-14T03:45:58.751Z,12.4
2017-08-14T03:47:05.604Z,12.5
2017-08-14T03:48:09.669Z,12.4
2017-08-14T03:49:12.280Z,12.4
2017-08-14T03:50:14.868Z,12.3
2017-08-14T03:51:17.521Z,12.2
2017-08-14T03:52:20.170Z,12.2
2017-08-14T03:53:22.770Z,12.3
2017-08-14T03:54:25.383Z,12.3
2017-08-14T03:55:27.956Z,12.2
2017-08-14T03:56:30.564Z,12.2
2017-08-14T03:57:33.309Z,12.2
2017-08-14T03:58:35.753Z,12.2
2017-08-14T03:59:38.220Z,12.4
2017-08-14T04:00:40.792Z,12.3
2017-08-14T04:01:43.879Z,12.5
2017-08-14T04:02:46.375Z,12.7
2017-08-14T04:03:50.064Z,12.7
2017-08-14T04:04:53.528Z,12.7
2017-08-14T04:05:56.562Z,12.4
2017-08-14T04:06:59.264Z,12.7
2017-08-14T04:08:02.812Z,12.7
2017-08-14T04:09:05.736Z,12.8
2017-08-14T04:10:08.897Z,12.7
2017-08-14T04:11:11.442Z,12.7
2017-08-14T04:12:14.047Z,12.8
2017-08-14T04:13:16.590Z,12.8
2017-08-14T04:14:19.088Z,12.8
2017-08-14T04:15:22.495Z,12.8
2017-08-14T04:16:24.997Z,12.6
2017-08-14T04:17:27.489Z,12.7
2017-08-14T04:18:30.004Z,12.7
2017-08-14T04:19:32.585Z,12.4
2017-08-14T04:20:35.461Z,12.4
2017-08-14T04:21:37.969Z,12.5
2017-08-14T04:22:41.306Z,12.7
2017-08-14T04:23:43.771Z,12.7
2017-08-14T04:24:46.204Z,12.6
2017-08-14T04:25:48.701Z,12.7
2017-08-14T04:26:51.928Z,12.8
2017-08-14T04:27:54.562Z,12.8
2017-08-14T04:28:57.168Z,12.9
2017-08-14T04:29:59.872Z,12.8
2017-08-14T04:31:02.502Z,12.6
2017-08-14T04:32:05.315Z,12.8
2017-08-14T04:33:08.038Z,12.9
2017-08-14T04:34:10.776Z,12.8
2017-08-14T04:35:13.378Z,12.9
2017-08-14T04:36:15.997Z,12.9
2017-08-14T04:37:18.813Z,12.9
2017-08-14T04:38:21.466Z,12.9
2017-08-14T04:39:24.051Z,12.9
2017-08-14T04:40:26.684Z,13
2017-08-14T04:41:29.329Z,12.9
2017-08-14T04:42:31.919Z,12.9
2017-08-14T04:43:34.454Z,12.9
2017-08-14T04:44:36.905Z,12.9
2017-08-14T04:45:41.354Z,13
2017-08-14T04:46:43.838Z,13
2017-08-14T04:47:46.347Z,13
2017-08-14T04:48:48.857Z,13.2
2017-08-14T04:49:51.475Z,13.2
2017-08-14T04:50:54.005Z,13.1
2017-08-14T04:51:56.480Z,13.1
2017-08-14T04:53:00.177Z,13.1
2017-08-14T04:54:04.308Z,13.1
2017-08-14T04:55:10.190Z,13.1
2017-08-14T04:56:12.933Z,13.2
2017-08-14T04:57:18.012Z,13.2
2017-08-14T04:58:21.220Z,13
2017-08-14T04:59:24.475Z,13.1
2017-08-14T05:00:27.805Z,13.1
2017-08-14T05:01:30.511Z,13.3
2017-08-14T05:02:33.717Z,13.3
2017-08-14T05:03:36.428Z,13.5
2017-08-14T05:04:38.975Z,13.6
2017-08-14T05:05:41.725Z,13.7
2017-08-14T05:06:45.989Z,13.7
2017-08-14T05:07:49.264Z,13.6
2017-08-14T05:08:51.763Z,13.7
2017-08-14T05:09:54.362Z,13.6
2017-08-14T05:10:57.031Z,13.7
2017-08-14T05:11:59.728Z,13.8
2017-08-14T05:13:04.694Z,13.8
2017-08-14T05:14:08.592Z,13.9
2017-08-14T05:15:13.266Z,13.8
2017-08-14T05:16:17.132Z,13.8
2017-08-14T05:17:20.900Z,13.8
2017-08-14T05:18:25.251Z,13.9
2017-08-14T05:19:29.586Z,14
2017-08-14T05:20:34.262Z,14.1
2017-08-14T05:21:38.390Z,13.9
2017-08-14T05:22:41.344Z,14.1
2017-08-14T05:23:45.896Z,14.3
2017-08-14T05:24:48.666Z,14.3
2017-08-14T05:25:51.314Z,14.3
2017-08-14T05:26:53.912Z,14.4
2017-08-14T05:27:57.228Z,14.5
2017-08-14T05:28:59.866Z,14.8
2017-08-14T05:31:17.000Z,14.8
2017-08-14T05:32:20.525Z,15
2017-08-14T05:33:23.827Z,15.2
2017-08-14T05:34:26.386Z,14.8
2017-08-14T05:35:29.558Z,14.7
2017-08-14T05:36:35.118Z,14.9
2017-08-14T05:37:37.765Z,14.8
2017-08-14T05:38:41.129Z,14.7
2017-08-14T05:39:44.316Z,14.7
2017-08-14T05:40:47.476Z,15
2017-08-14T05:41:50.818Z,15.4
2017-08-14T05:42:54.528Z,15.7
2017-08-14T05:43:57.191Z,15.9
2017-08-14T05:44:59.898Z,16.1
2017-08-14T05:46:03.748Z,15.9
2017-08-14T05:47:08.062Z,15.9
2017-08-14T05:48:11.273Z,16.4
2017-08-14T05:49:14.097Z,16.3
2017-08-14T05:50:20.034Z,17.3
2017-08-14T05:51:23.594Z,17.3
2017-08-14T05:52:26.464Z,17.3
2017-08-14T05:53:34.642Z,17.3
2017-08-14T05:54:37.412Z,16.9
2017-08-14T05:55:40.284Z,16.8
2017-08-14T05:56:43.923Z,16.7
2017-08-14T05:57:47.583Z,17
2017-08-14T05:58:51.017Z,17.3
2017-08-14T05:59:53.837Z,17.7
2017-08-14T06:00:57.386Z,17.6
2017-08-14T06:02:00.095Z,17.6
2017-08-14T06:03:04.775Z,18.3
2017-08-14T06:04:08.689Z,19.5
2017-08-14T06:05:12.997Z,19.9
2017-08-14T06:06:16.395Z,19.4
2017-08-14T06:07:19.195Z,18.6
2017-08-14T06:08:23.386Z,18.6
2017-08-14T06:09:26.169Z,19
2017-08-14T06:10:29.967Z,19
2017-08-14T06:11:38.023Z,19.3
2017-08-14T06:12:41.487Z,20
2017-08-14T06:13:45.788Z,19.5
2017-08-14T06:14:48.451Z,19.3
2017-08-14T06:15:51.506Z,18.5
2017-08-14T06:16:55.007Z,18.4
2017-08-14T06:17:57.520Z,18.5
2017-08-14T06:19:01.310Z,17.7
2017-08-14T06:20:12.416Z,18.8
2017-08-14T06:21:15.325Z,18.6
2017-08-14T06:22:18.209Z,19.9
2017-08-14T06:23:21.549Z,21.6
2017-08-14T06:24:25.008Z,21.4
2017-08-14T06:25:27.840Z,22.3
2017-08-14T06:26:32.053Z,22.6
2017-08-14T06:27:34.664Z,23.4
2017-08-14T06:28:38.208Z,24.6
2017-08-14T06:29:41.011Z,22.7
2017-08-14T06:30:44.077Z,23.5
2017-08-14T06:31:47.060Z,23
2017-08-14T06:32:51.334Z,25.1
2017-08-14T06:33:54.333Z,26
2017-08-14T06:34:57.148Z,26.5
2017-08-14T06:36:00.223Z,26.1
2017-08-14T06:37:04.643Z,25.5
2017-08-14T06:38:09.868Z,26.7
2017-08-14T06:39:12.692Z,26.4
2017-08-14T06:40:17.673Z,26.8
2017-08-14T06:41:21.303Z,27.4
2017-08-14T06:42:25.972Z,27.7
2017-08-14T06:43:29.965Z,28.4
2017-08-14T06:44:34.228Z,27.8
2017-08-14T06:45:38.953Z,27.8
2017-08-14T06:46:44.343Z,27.6
2017-08-14T06:47:48.627Z,28.3
2017-08-14T06:48:51.570Z,30.2
2017-08-14T06:49:54.118Z,29.6
2017-08-14T06:50:57.651Z,27
2017-08-14T06:52:00.481Z,27.6
2017-08-14T06:53:04.997Z,29.1
2017-08-14T06:54:10.112Z,28.5
2017-08-14T06:55:15.943Z,29.2
2017-08-14T06:56:23.060Z,29.3
2017-08-14T06:57:30.343Z,30
2017-08-14T06:58:36.672Z,28.6
2017-08-14T06:59:39.570Z,28.5
2017-08-14T07:00:47.749Z,26.1
2017-08-14T07:01:51.450Z,25.7
2017-08-14T07:02:54.101Z,28.3
2017-08-14T07:03:56.895Z,29.3
2017-08-14T07:04:59.558Z,28.9
2017-08-14T07:06:02.363Z,28.9
2017-08-14T07:07:09.057Z,29.6
2017-08-14T07:08:15.985Z,30.7
2017-08-14T07:09:19.473Z,30.1
2017-08-14T07:10:26.378Z,29.8
2017-08-14T07:11:33.143Z,30.2
2017-08-14T07:12:39.137Z,30.7
2017-08-14T07:13:43.876Z,30.3
2017-08-14T07:14:49.532Z,30.6
2017-08-14T07:15:53.246Z,31.5
2017-08-14T07:16:58.175Z,31.3
2017-08-14T07:19:14.238Z,29.1
2017-08-14T07:20:16.980Z,29.7
2017-08-14T07:21:20.972Z,31.1
2017-08-14T07:22:25.713Z,31.7
2017-08-14T07:24:39.317Z,32.8
2017-08-14T07:25:43.112Z,33
2017-08-14T07:26:48.192Z,31.6
2017-08-14T07:27:52.466Z,31.3
2017-08-14T07:28:55.243Z,28.3
2017-08-14T07:29:59.425Z,26
2017-08-14T07:31:14.152Z,25.1
2017-08-14T07:32:20.972Z,25.2
2017-08-14T07:33:24.731Z,26.4
2017-08-14T07:34:28.050Z,29
2017-08-14T07:35:32.843Z,30.7
2017-08-14T07:36:36.722Z,31.7
2017-08-14T07:37:45.854Z,32
2017-08-14T07:38:48.833Z,30
2017-08-14T07:39:53.748Z,28.2
2017-08-14T07:40:57.448Z,29.6
2017-08-14T07:42:00.918Z,29
2017-08-14T07:43:04.333Z,30.8
2017-08-14T07:44:09.737Z,30.5
2017-08-14T07:45:13.066Z,26.9
2017-08-14T07:46:18.339Z,25.3
2017-08-14T07:47:21.755Z,27.9
2017-08-14T07:48:25.466Z,30.5
2017-08-14T07:49:29.385Z,29.2
2017-08-14T07:50:35.126Z,31.5
2017-08-14T07:51:40.397Z,27.9
2017-08-14T07:52:44.421Z,27.9
2017-08-14T07:53:48.156Z,31.2
2017-08-14T07:54:52.911Z,30.4
2017-08-14T07:55:58.373Z,30.8
2017-08-14T07:57:01.160Z,30.6
2017-08-14T07:59:14.049Z,30.5
2017-08-14T08:00:23.052Z,31
2017-08-14T08:01:26.812Z,29.9
2017-08-14T08:02:32.316Z,28.4
2017-08-14T08:03:36.712Z,31
2017-08-14T08:04:41.842Z,30.2
2017-08-14T08:05:46.843Z,29
2017-08-14T08:06:52.100Z,31
2017-08-14T08:07:54.767Z,32.6
2017-08-14T08:08:58.243Z,28.2
2017-08-14T08:11:14.733Z,28.5
2017-08-14T08:12:19.421Z,27.7
2017-08-14T08:13:23.086Z,27.6
2017-08-14T08:14:28.384Z,24.4
2017-08-14T08:15:32.286Z,27.3
2017-08-14T08:16:39.850Z,29.8
2017-08-14T08:17:47.126Z,28.4
2017-08-14T08:18:51.278Z,26.9
2017-08-14T08:19:54.012Z,25.2
2017-08-14T08:20:58.739Z,26.4
2017-08-14T08:22:07.679Z,26.8
2017-08-14T08:23:12.289Z,28.8
2017-08-14T08:24:16.996Z,28.9
2017-08-14T08:25:21.821Z,27.9
2017-08-14T08:26:27.146Z,29.1
2017-08-14T08:28:43.979Z,32.2
2017-08-14T08:29:49.164Z,29.9
2017-08-14T08:30:53.394Z,28.3
2017-08-14T08:31:58.858Z,26.4
2017-08-14T08:34:12.678Z,26
2017-08-14T08:35:20.801Z,31.2
2017-08-14T08:36:26.862Z,30.4
2017-08-14T08:37:33.722Z,28
2017-08-14T08:38:42.881Z,28.4
2017-08-14T08:39:47.721Z,27.6
2017-08-14T08:40:53.398Z,26.9
2017-08-14T08:42:00.058Z,29.3
2017-08-14T08:43:06.049Z,28.6
2017-08-14T08:44:10.429Z,27.9
2017-08-14T08:45:18.065Z,27.7
2017-08-14T08:46:27.524Z,29.4
2017-08-14T08:47:32.511Z,29.5
2017-08-14T08:48:38.103Z,30.9
2017-08-14T08:49:41.019Z,31.2
2017-08-14T08:50:44.625Z,32.9
2017-08-14T08:51:52.824Z,33.5
2017-08-14T08:52:57.882Z,32.1
2017-08-14T08:54:01.830Z,29.5
2017-08-14T08:55:13.616Z,30.5
2017-08-14T08:56:18.120Z,29.2
2017-08-14T08:57:24.920Z,30
2017-08-14T08:58:30.509Z,28
2017-08-14T08:59:36.004Z,27.4
2017-08-14T09:00:43.739Z,27.9
2017-08-14T09:01:48.731Z,27.8
2017-08-14T09:02:52.559Z,29.2
2017-08-14T09:03:55.460Z,27.7
2017-08-14T09:04:59.186Z,29.1
2017-08-14T09:06:07.033Z,28.2
2017-08-14T09:07:14.342Z,29.5
2017-08-14T09:08:19.272Z,27.6
2017-08-14T09:09:26.201Z,26.2
2017-08-14T09:10:30.396Z,27.5
2017-08-14T09:11:37.833Z,26.1
2017-08-14T09:12:45.605Z,26.4
2017-08-14T09:13:51.125Z,26.2
2017-08-14T09:14:55.526Z,28
2017-08-14T09:15:58.845Z,28.4
2017-08-14T09:17:09.535Z,28.6
2017-08-14T09:18:18.892Z,29.6
2017-08-14T09:19:25.933Z,28.5
2017-08-14T09:20:33.303Z,32.1
2017-08-14T09:21:42.066Z,34.2
2017-08-14T09:22:48.226Z,33.1
2017-08-14T09:23:52.648Z,31.8
2017-08-14T09:24:57.553Z,35.2
2017-08-14T09:28:21.565Z,32.6
2017-08-14T09:29:28.597Z,29.4
2017-08-14T09:30:32.534Z,29.9
2017-08-14T09:31:43.839Z,26.8
2017-08-14T09:32:55.281Z,26.4
2017-08-14T09:34:07.591Z,25.4
2017-08-14T09:36:25.844Z,27.3
2017-08-14T09:37:33.065Z,26.5
2017-08-14T09:38:37.398Z,26.7
2017-08-14T09:39:46.718Z,29.5
2017-08-14T09:40:55.917Z,28.3
2017-08-14T09:42:02.782Z,30.2
2017-08-14T09:43:13.470Z,29.6
2017-08-14T09:44:20.002Z,28.8
2017-08-14T09:45:27.513Z,28.6
2017-08-14T09:46:36.818Z,28.4
2017-08-14T09:47:43.134Z,30.5
2017-08-14T09:48:49.848Z,31.8
2017-08-14T09:49:53.950Z,29.7
2017-08-14T09:50:58.077Z,32.1
2017-08-14T09:52:12.234Z,27.6
2017-08-14T09:53:24.580Z,28
2017-08-14T09:54:34.104Z,29
2017-08-14T09:59:41.788Z,32.4
2017-08-14T10:00:52.659Z,29.8
2017-08-14T10:02:01.578Z,29.4
2017-08-14T10:03:12.286Z,29.5
2017-08-14T10:04:24.449Z,28.3
2017-08-14T10:05:29.141Z,29.7
2017-08-14T10:06:36.353Z,29.7
2017-08-14T10:07:48.849Z,29.9
2017-08-14T10:08:59.244Z,30.5
2017-08-14T10:11:19.038Z,29.7
2017-08-14T10:12:24.624Z,28.2
2017-08-14T10:13:31.811Z,27.1
2017-08-14T10:14:36.256Z,26.4
2017-08-14T10:15:42.658Z,24.8
2017-08-14T10:16:51.379Z,24
2017-08-14T10:17:56.714Z,24.9
2017-08-14T10:19:01.449Z,24.9
2017-08-14T10:21:17.389Z,25.5
2017-08-14T10:22:22.287Z,25.6
2017-08-14T10:23:26.507Z,24.8
2017-08-14T10:24:33.456Z,26
2017-08-14T10:26:51.793Z,25.1
2017-08-14T10:28:07.899Z,24.5
2017-08-14T10:29:16.040Z,24.8
2017-08-14T10:30:24.392Z,24.7
2017-08-14T10:31:32.360Z,25.7
2017-08-14T10:32:37.490Z,26.2
2017-08-14T10:33:42.815Z,26.5
2017-08-14T10:34:49.868Z,25.4
2017-08-14T10:35:56.309Z,26.4
2017-08-14T10:38:31.138Z,23.9
2017-08-14T10:39:43.193Z,24.6
2017-08-14T10:40:56.118Z,23.9
2017-08-14T10:42:11.940Z,25.1
2017-08-14T10:43:21.459Z,25.7
2017-08-14T10:44:24.974Z,26.1
2017-08-14T10:45:33.172Z,26.2
2017-08-14T10:46:43.823Z,24.7
2017-08-14T10:47:52.568Z,25
2017-08-14T10:48:57.962Z,25.5
2017-08-14T10:51:28.123Z,24.6
2017-08-14T10:52:40.269Z,24
2017-08-14T10:53:56.389Z,24.4
2017-08-14T10:55:01.277Z,24.7
2017-08-14T10:56:10.214Z,25.2
2017-08-14T10:57:21.179Z,25.2
2017-08-14T10:58:33.172Z,24.2
2017-08-14T10:59:36.576Z,24.3
2017-08-14T11:00:44.226Z,24.4
2017-08-14T11:01:54.293Z,24.9
2017-08-14T11:02:57.417Z,24.6
2017-08-14T11:04:07.805Z,24.2
2017-08-14T11:07:46.204Z,25.2
2017-08-14T11:08:53.306Z,24.9
2017-08-14T11:09:56.455Z,24.7
2017-08-14T11:28:50.123Z,24.7
2017-08-14T11:33:57.997Z,25.4
2017-08-14T11:43:39.756Z,25.1
2017-08-14T11:48:56.617Z,26.1
2017-08-14T11:59:14.113Z,25
2017-08-14T12:01:45.842Z,24.6
2017-08-14T12:05:35.435Z,26.1
2017-08-14T12:08:12.632Z,25.5
2017-08-14T12:09:25.106Z,26.2
2017-08-14T12:10:30.040Z,25.8
2017-08-14T12:11:38.457Z,25.1
2017-08-14T12:13:59.310Z,25
2017-08-14T12:17:51.355Z,25.2
2017-08-14T12:19:01.334Z,24.7
2017-08-14T12:20:17.801Z,24.4
2017-08-14T12:21:28.494Z,24.7
2017-08-14T12:23:54.324Z,25.3
2017-08-14T12:24:59.310Z,25.5
2017-08-14T12:26:08.021Z,25.9
2017-08-14T12:27:28.209Z,25.9
2017-08-14T12:28:40.599Z,25.6
2017-08-14T12:29:47.463Z,25.8
2017-08-14T12:30:58.393Z,26.1
2017-08-14T12:33:19.010Z,25.8
2017-08-14T12:34:25.910Z,24.9
2017-08-14T12:35:38.495Z,24.3
2017-08-14T12:36:53.318Z,24.3
2017-08-14T12:38:12.970Z,24.4
2017-08-14T12:39:22.190Z,24.6
2017-08-14T12:40:38.223Z,24.7
2017-08-14T12:41:49.536Z,25.7
2017-08-14T12:43:00.849Z,25.5
2017-08-14T12:44:15.431Z,24.6
2017-08-14T12:45:21.965Z,24.6
2017-08-14T12:46:27.485Z,24.9
2017-08-14T12:47:38.218Z,25.6
2017-08-14T12:48:50.395Z,25.6
2017-08-14T12:49:55.740Z,24.7
2017-08-14T12:52:22.017Z,25.6
2017-08-14T12:53:32.155Z,25.4
2017-08-14T12:54:47.678Z,25.3
2017-08-14T12:55:55.621Z,26.2
2017-08-14T12:57:10.436Z,25.7
2017-08-14T12:58:17.229Z,26.2
2017-08-14T12:59:22.694Z,26.1
2017-08-14T13:01:51.234Z,26
2017-08-14T13:02:57.471Z,25.5
2017-08-14T13:04:00.357Z,25.1
2017-08-14T13:06:30.333Z,25.3
2017-08-14T13:07:38.497Z,25.2
2017-08-14T13:08:47.739Z,25.4
2017-08-14T13:09:54.186Z,25.5
2017-08-14T13:10:58.904Z,25.2
2017-08-14T13:12:11.359Z,25.8
2017-08-14T13:13:17.532Z,25.5
2017-08-14T13:14:31.292Z,25.6
2017-08-14T13:15:43.057Z,25.8
2017-08-14T13:16:57.469Z,25.3
2017-08-14T13:19:33.521Z,24.8
2017-08-14T13:20:44.012Z,25.1
2017-08-14T13:21:49.022Z,25.2
2017-08-14T13:22:56.937Z,25.5
2017-08-14T13:24:00.284Z,25.1
2017-08-14T13:26:40.286Z,25.2
2017-08-14T13:27:54.843Z,24.9
2017-08-14T13:29:09.046Z,25.1
2017-08-14T13:31:25.722Z,25.7
2017-08-14T13:32:34.545Z,25.6
2017-08-14T13:33:43.233Z,25.5
2017-08-14T13:34:49.904Z,24.9
2017-08-14T13:35:56.942Z,25.1
2017-08-14T13:38:28.982Z,25.8
2017-08-14T13:39:37.305Z,25.4
2017-08-14T13:41:59.552Z,25.5
2017-08-14T13:43:16.107Z,25.4
2017-08-14T13:44:30.072Z,26
2017-08-14T13:45:41.721Z,25.7
2017-08-14T13:46:54.597Z,25.4
2017-08-14T13:49:17.021Z,25.3
2017-08-14T13:50:29.049Z,25.3
2017-08-14T13:51:42.585Z,25.7
2017-08-14T13:52:53.154Z,25.8
2017-08-14T13:53:59.036Z,25.9
2017-08-14T13:57:42.668Z,25.4
2017-08-14T13:58:55.899Z,25.4
2017-08-14T14:01:19.187Z,25.5
2017-08-14T14:02:29.691Z,25.1
2017-08-14T14:03:41.889Z,25.4
2017-08-14T14:04:46.291Z,25.9
2017-08-14T14:09:44.901Z,25.3
2017-08-14T14:10:54.552Z,25.4
2017-08-14T14:12:10.653Z,25
2017-08-14T14:13:26.539Z,25.1
2017-08-14T14:14:43.696Z,24.6
2017-08-14T14:17:21.205Z,24.6
2017-08-14T14:18:39.513Z,24.8
2017-08-14T14:19:47.941Z,25.1
2017-08-14T14:20:59.349Z,24.9
2017-08-14T14:22:17.246Z,25.1
2017-08-14T14:24:46.875Z,24.9
2017-08-14T14:27:23.165Z,25.2
2017-08-14T14:28:35.705Z,24.9
2017-08-14T14:29:40.784Z,25
2017-08-14T14:33:23.052Z,25.2
2017-08-14T14:35:52.538Z,25.4
2017-08-14T14:38:28.872Z,25.6
2017-08-14T14:39:44.462Z,25.4
2017-08-14T14:40:57.142Z,25
2017-08-14T14:44:36.083Z,24.9
2017-08-14T14:46:59.617Z,25.2
2017-08-14T14:48:07.598Z,25.2
2017-08-14T14:49:15.439Z,25
2017-08-14T14:51:47.202Z,25.2
2017-08-14T14:54:19.813Z,25.5
2017-08-14T14:55:26.978Z,25
2017-08-14T14:56:40.680Z,24.7
2017-08-14T14:57:46.565Z,24.7
2017-08-14T14:58:54.250Z,25.1
2017-08-14T14:59:57.075Z,24.9
2017-08-14T15:02:18.428Z,25.1
2017-08-14T15:04:34.973Z,25
2017-08-14T15:05:44.560Z,25.4
2017-08-14T15:06:54.746Z,25.5
2017-08-14T15:08:01.565Z,25
2017-08-14T15:09:11.255Z,25.2
2017-08-14T15:10:24.910Z,25.4
2017-08-14T15:11:35.523Z,24.8
2017-08-14T15:12:45.883Z,25.1
2017-08-14T15:13:50.427Z,25.6
2017-08-14T15:14:54.567Z,25.5
2017-08-14T15:15:58.831Z,25.6
2017-08-14T15:17:11.975Z,25.3
2017-08-14T15:18:16.125Z,25.3
2017-08-14T15:19:21.563Z,25
2017-08-14T15:21:46.212Z,25.5
2017-08-14T15:22:51.614Z,25.5
2017-08-14T15:23:59.346Z,25.2
2017-08-14T15:26:21.223Z,25.3
2017-08-14T15:27:29.909Z,25.4
2017-08-14T15:28:39.695Z,25.3
2017-08-14T15:29:49.267Z,24.9
2017-08-14T15:32:29.440Z,24.8
2017-08-14T15:36:33.385Z,25.1
2017-08-14T15:37:51.548Z,25.1
2017-08-14T15:42:59.228Z,25.1
2017-08-14T15:44:15.653Z,24.8
2017-08-14T15:45:23.467Z,24.9
2017-08-14T15:46:30.555Z,24.9
2017-08-14T15:47:37.365Z,24.8
2017-08-14T15:48:43.700Z,24.7
2017-08-14T15:49:47.437Z,24.6
2017-08-14T15:50:54.303Z,24.7
2017-08-14T15:53:19.275Z,24.7
2017-08-14T15:54:28.807Z,24.7
2017-08-14T15:57:13.550Z,24.5
2017-08-14T15:58:25.103Z,24.5
2017-08-14T16:02:26.238Z,24.1
2017-08-14T16:03:31.925Z,24.5
2017-08-14T16:04:39.601Z,23.9
2017-08-14T16:05:46.417Z,24.5
2017-08-14T16:06:54.044Z,24.4
2017-08-14T16:09:34.521Z,24.2
2017-08-14T16:14:41.363Z,24.1
2017-08-14T16:21:23.114Z,23.8
2017-08-14T16:23:56.329Z,24.1
2017-08-14T16:26:33.004Z,24.2
2017-08-14T16:27:45.902Z,24
2017-08-14T16:28:53.858Z,24.2
2017-08-14T16:30:01.144Z,24.2
2017-08-14T16:31:26.188Z,24.2
2017-08-14T16:32:34.205Z,24.1
2017-08-14T16:33:42.738Z,24.1
2017-08-14T16:34:46.158Z,24.1
2017-08-14T16:35:54.912Z,24
2017-08-14T16:37:10.940Z,24.2
2017-08-14T16:38:18.374Z,24.2
2017-08-14T16:39:25.762Z,24.2
2017-08-14T16:40:35.971Z,24.1
2017-08-14T16:41:48.788Z,24.2
2017-08-14T16:43:00.567Z,24.5
2017-08-14T16:44:14.118Z,24.6
2017-08-14T16:45:22.279Z,24.7
2017-08-14T16:47:38.856Z,24.3
2017-08-14T16:49:55.852Z,24.1
2017-08-14T16:52:13.958Z,24.4
2017-08-14T16:53:18.258Z,24.2
2017-08-14T16:54:29.821Z,24.4
2017-08-14T16:55:43.826Z,24.3
2017-08-14T16:56:56.244Z,24.3
2017-08-14T16:59:16.627Z,24.4
2017-08-14T17:00:26.409Z,24.3
2017-08-14T17:01:34.147Z,24.5
2017-08-14T17:03:52.663Z,24.2
2017-08-14T17:04:58.199Z,24.2
2017-08-14T17:07:27.139Z,24
2017-08-14T17:08:38.470Z,24
2017-08-14T17:09:46.706Z,24
2017-08-14T17:11:01.780Z,24
2017-08-14T17:12:15.723Z,23.9
2017-08-14T17:13:33.973Z,24